Lymington, United Kingdom
Current Conditions -  °F | °C
As of 5:50 PM on Thursday 23 Oct 2014 (Local Time) from EGHI Reporting Station
Drizzle Drizzle  
Wind Chill: 57°   Ceiling: 1000
Heat Index: 57°   Visibility: 4mi
Dew Point: 55°   Wind: 12mph
Humidity: 94%   Direction: 220°SW
Pressure: 30.06"   Gusts: NA
Location:  50.76°N, 1.54°W
Report Text: EGHI 231650Z 22010KT 200V260 7000 DZ BKN010 14/13 Q1018
Loading
Personal Weather Stations






























Interactive Weather Map
Tropical Storm Tracking
New forecast layout! Learn more

10-Day Weather Forecast

Advertisements
Track Severe Weather on mobile